Terminal Aerodrome Forecast
Issued by NWS Portland, OR

Home | Current Version | Previous Version | Text Only | Print | Product List | Glossary On
Versions: 1 2 3 4 5 6 7 8 9 10 11 12 13 14 15 16 17 18 19 20 21 22 23 24
000
FTUS46 KPQR 232337
TAFPDX
TAF
KPDX 232337Z 2400/2424 28008KT P6SM -SHRA SCT025 BKN050 BKN070
     FM240400 26005KT P6SM SCT025 BKN050
     FM240700 VRB04KT P6SM BKN020 OVC050
     FM241200 VRB03KT 5SM BR SCT007 OVC020
     FM242100 16007KT P6SM BKN050=

USA.gov is the U.S. government's official web portal to all federal, state and local government web resources and services.